sensor_id;sensor_type;location;lat;lon;timestamp;P1;durP1;ratioP1;P2;durP2;ratioP2
79670;SDS011;69137;50.878;8.050;2023-04-24T00:00:23;1.85;;;1.02;;
79670;SDS011;69137;50.878;8.050;2023-04-24T00:02:49;3.28;;;1.10;;
79670;SDS011;69137;50.878;8.050;2023-04-24T00:05:15;0.73;;;0.73;;
79670;SDS011;69137;50.878;8.050;2023-04-24T00:07:43;1.58;;;0.98;;
79670;SDS011;69137;50.878;8.050;2023-04-24T00:10:10;3.10;;;1.00;;
79670;SDS011;69137;50.878;8.050;2023-04-24T00:12:36;0.85;;;0.70;;
79670;SDS011;69137;50.878;8.050;2023-04-24T00:15:02;1.65;;;0.80;;
79670;SDS011;69137;50.878;8.050;2023-04-24T00:17:27;0.95;;;0.77;;
79670;SDS011;69137;50.878;8.050;2023-04-24T00:19:53;1.73;;;0.88;;
79670;SDS011;69137;50.878;8.050;2023-04-24T00:22:26;1.65;;;0.90;;
79670;SDS011;69137;50.878;8.050;2023-04-24T00:24:53;0.63;;;0.63;;
79670;SDS011;69137;50.878;8.050;2023-04-24T00:27:18;3.20;;;0.90;;
79670;SDS011;69137;50.878;8.050;2023-04-24T00:29:44;2.72;;;0.90;;
79670;SDS011;69137;50.878;8.050;2023-04-24T00:32:09;1.45;;;0.90;;
79670;SDS011;69137;50.878;8.050;2023-04-24T00:34:35;0.88;;;0.73;;
79670;SDS011;69137;50.878;8.050;2023-04-24T00:37:00;1.13;;;0.90;;
79670;SDS011;69137;50.878;8.050;2023-04-24T00:39:26;2.70;;;0.90;;
79670;SDS011;69137;50.878;8.050;2023-04-24T00:41:51;1.52;;;0.95;;
79670;SDS011;69137;50.878;8.050;2023-04-24T00:44:18;3.72;;;0.90;;
79670;SDS011;69137;50.878;8.050;2023-04-24T00:46:43;2.50;;;1.00;;
79670;SDS011;69137;50.878;8.050;2023-04-24T00:49:10;0.82;;;0.70;;
79670;SDS011;69137;50.878;8.050;2023-04-24T00:51:37;0.95;;;0.82;;
79670;SDS011;69137;50.878;8.050;2023-04-24T00:54:02;0.80;;;0.60;;
79670;SDS011;69137;50.878;8.050;2023-04-24T00:56:28;2.05;;;0.80;;
79670;SDS011;69137;50.878;8.050;2023-04-24T00:58:53;0.73;;;0.63;;
79670;SDS011;69137;50.878;8.050;2023-04-24T01:01:19;4.85;;;0.80;;
79670;SDS011;69137;50.878;8.050;2023-04-24T01:03:46;0.90;;;0.85;;
79670;SDS011;69137;50.878;8.050;2023-04-24T01:06:12;2.08;;;0.82;;
79670;SDS011;69137;50.878;8.050;2023-04-24T01:08:38;2.03;;;0.98;;
79670;SDS011;69137;50.878;8.050;2023-04-24T01:11:05;2.28;;;0.80;;
79670;SDS011;69137;50.878;8.050;2023-04-24T01:13:32;0.80;;;0.77;;
79670;SDS011;69137;50.878;8.050;2023-04-24T01:15:58;2.05;;;1.00;;
79670;SDS011;69137;50.878;8.050;2023-04-24T01:18:23;1.27;;;0.88;;
79670;SDS011;69137;50.878;8.050;2023-04-24T01:20:49;1.50;;;0.70;;
79670;SDS011;69137;50.878;8.050;2023-04-24T01:23:18;1.25;;;0.98;;
79670;SDS011;69137;50.878;8.050;2023-04-24T01:25:44;1.40;;;0.70;;
79670;SDS011;69137;50.878;8.050;2023-04-24T01:28:10;1.90;;;0.75;;
79670;SDS011;69137;50.878;8.050;2023-04-24T01:30:36;3.15;;;0.80;;
79670;SDS011;69137;50.878;8.050;2023-04-24T01:33:02;1.33;;;0.98;;
79670;SDS011;69137;50.878;8.050;2023-04-24T01:35:28;1.73;;;0.90;;
79670;SDS011;69137;50.878;8.050;2023-04-24T01:37:53;0.93;;;0.77;;
79670;SDS011;69137;50.878;8.050;2023-04-24T01:40:19;0.75;;;0.75;;
79670;SDS011;69137;50.878;8.050;2023-04-24T01:42:45;2.30;;;0.80;;
79670;SDS011;69137;50.878;8.050;2023-04-24T01:45:11;0.57;;;0.57;;
79670;SDS011;69137;50.878;8.050;2023-04-24T01:47:37;1.35;;;0.90;;
79670;SDS011;69137;50.878;8.050;2023-04-24T01:50:05;1.20;;;0.98;;
79670;SDS011;69137;50.878;8.050;2023-04-24T01:52:31;0.95;;;0.85;;
79670;SDS011;69137;50.878;8.050;2023-04-24T01:55:02;1.02;;;1.00;;
79670;SDS011;69137;50.878;8.050;2023-04-24T01:57:29;0.60;;;0.60;;
79670;SDS011;69137;50.878;8.050;2023-04-24T01:59:55;1.85;;;1.20;;
79670;SDS011;69137;50.878;8.050;2023-04-24T02:02:21;1.10;;;0.85;;
79670;SDS011;69137;50.878;8.050;2023-04-24T02:04:49;1.65;;;1.00;;
79670;SDS011;69137;50.878;8.050;2023-04-24T02:07:17;1.80;;;1.08;;
79670;SDS011;69137;50.878;8.050;2023-04-24T02:09:42;1.83;;;1.10;;
79670;SDS011;69137;50.878;8.050;2023-04-24T02:12:08;0.88;;;0.85;;
79670;SDS011;69137;50.878;8.050;2023-04-24T02:14:33;1.83;;;0.90;;
79670;SDS011;69137;50.878;8.050;2023-04-24T02:16:59;1.52;;;0.95;;
79670;SDS011;69137;50.878;8.050;2023-04-24T02:19:25;1.42;;;0.80;;
79670;SDS011;69137;50.878;8.050;2023-04-24T02:21:51;3.00;;;1.15;;
79670;SDS011;69137;50.878;8.050;2023-04-24T02:24:17;1.48;;;1.10;;
79670;SDS011;69137;50.878;8.050;2023-04-24T02:26:42;1.60;;;1.15;;
79670;SDS011;69137;50.878;8.050;2023-04-24T02:29:07;2.13;;;0.90;;
79670;SDS011;69137;50.878;8.050;2023-04-24T02:31:33;1.42;;;1.00;;
79670;SDS011;69137;50.878;8.050;2023-04-24T02:33:58;1.10;;;0.90;;
79670;SDS011;69137;50.878;8.050;2023-04-24T02:36:24;1.20;;;1.00;;
79670;SDS011;69137;50.878;8.050;2023-04-24T02:38:50;1.80;;;0.95;;
79670;SDS011;69137;50.878;8.050;2023-04-24T02:41:15;1.08;;;0.80;;
79670;SDS011;69137;50.878;8.050;2023-04-24T02:43:40;1.40;;;1.30;;
79670;SDS011;69137;50.878;8.050;2023-04-24T02:46:06;1.65;;;0.98;;
79670;SDS011;69137;50.878;8.050;2023-04-24T02:48:31;2.45;;;1.30;;
79670;SDS011;69137;50.878;8.050;2023-04-24T02:50:57;1.42;;;1.00;;
79670;SDS011;69137;50.878;8.050;2023-04-24T02:53:23;1.40;;;1.00;;
79670;SDS011;69137;50.878;8.050;2023-04-24T02:55:48;1.23;;;1.00;;
79670;SDS011;69137;50.878;8.050;2023-04-24T02:58:14;1.90;;;1.20;;
79670;SDS011;69137;50.878;8.050;2023-04-24T03:00:40;7.35;;;1.83;;
79670;SDS011;69137;50.878;8.050;2023-04-24T03:03:06;1.80;;;1.00;;
79670;SDS011;69137;50.878;8.050;2023-04-24T03:05:32;4.45;;;1.40;;
79670;SDS011;69137;50.878;8.050;2023-04-24T03:07:57;4.53;;;1.70;;
79670;SDS011;69137;50.878;8.050;2023-04-24T03:10:23;1.33;;;1.20;;
79670;SDS011;69137;50.878;8.050;2023-04-24T03:12:48;2.00;;;1.20;;
79670;SDS011;69137;50.878;8.050;2023-04-24T03:15:14;1.83;;;1.40;;
79670;SDS011;69137;50.878;8.050;2023-04-24T03:17:40;2.10;;;1.55;;
79670;SDS011;69137;50.878;8.050;2023-04-24T03:20:06;3.78;;;1.55;;
79670;SDS011;69137;50.878;8.050;2023-04-24T03:22:33;1.67;;;1.30;;
79670;SDS011;69137;50.878;8.050;2023-04-24T03:24:59;4.00;;;1.67;;
79670;SDS011;69137;50.878;8.050;2023-04-24T03:27:25;2.58;;;1.67;;
79670;SDS011;69137;50.878;8.050;2023-04-24T03:29:51;5.28;;;2.10;;
79670;SDS011;69137;50.878;8.050;2023-04-24T03:32:20;5.40;;;2.15;;
79670;SDS011;69137;50.878;8.050;2023-04-24T03:34:45;3.10;;;2.10;;
79670;SDS011;69137;50.878;8.050;2023-04-24T03:37:11;3.20;;;1.85;;
79670;SDS011;69137;50.878;8.050;2023-04-24T03:39:36;4.15;;;1.90;;
79670;SDS011;69137;50.878;8.050;2023-04-24T03:42:01;4.03;;;2.10;;
79670;SDS011;69137;50.878;8.050;2023-04-24T03:44:27;5.03;;;3.13;;
79670;SDS011;69137;50.878;8.050;2023-04-24T03:46:52;3.72;;;2.35;;
79670;SDS011;69137;50.878;8.050;2023-04-24T03:49:18;3.38;;;2.50;;
79670;SDS011;69137;50.878;8.050;2023-04-24T03:51:43;3.83;;;2.67;;
79670;SDS011;69137;50.878;8.050;2023-04-24T03:54:09;3.72;;;2.40;;
79670;SDS011;69137;50.878;8.050;2023-04-24T03:56:34;6.25;;;3.00;;
79670;SDS011;69137;50.878;8.050;2023-04-24T03:58:59;3.85;;;2.67;;
79670;SDS011;69137;50.878;8.050;2023-04-24T04:01:25;5.10;;;2.78;;
79670;SDS011;69137;50.878;8.050;2023-04-24T04:03:51;4.38;;;3.00;;
79670;SDS011;69137;50.878;8.050;2023-04-24T04:06:16;4.07;;;2.60;;
79670;SDS011;69137;50.878;8.050;2023-04-24T04:08:41;6.10;;;3.47;;
79670;SDS011;69137;50.878;8.050;2023-04-24T04:11:07;6.28;;;3.15;;
79670;SDS011;69137;50.878;8.050;2023-04-24T04:13:32;5.63;;;3.10;;
79670;SDS011;69137;50.878;8.050;2023-04-24T04:15:58;4.93;;;3.05;;
79670;SDS011;69137;50.878;8.050;2023-04-24T04:18:23;4.60;;;3.10;;
79670;SDS011;69137;50.878;8.050;2023-04-24T04:20:48;5.75;;;3.28;;
79670;SDS011;69137;50.878;8.050;2023-04-24T04:23:14;6.53;;;2.90;;
79670;SDS011;69137;50.878;8.050;2023-04-24T04:25:39;6.53;;;3.35;;
79670;SDS011;69137;50.878;8.050;2023-04-24T04:28:05;5.68;;;4.00;;
79670;SDS011;69137;50.878;8.050;2023-04-24T04:30:30;6.18;;;3.50;;
79670;SDS011;69137;50.878;8.050;2023-04-24T04:32:57;5.05;;;3.33;;
79670;SDS011;69137;50.878;8.050;2023-04-24T04:35:23;4.68;;;3.63;;
79670;SDS011;69137;50.878;8.050;2023-04-24T04:37:48;6.60;;;3.35;;
79670;SDS011;69137;50.878;8.050;2023-04-24T04:40:13;5.90;;;3.67;;
79670;SDS011;69137;50.878;8.050;2023-04-24T04:42:39;4.93;;;3.13;;
79670;SDS011;69137;50.878;8.050;2023-04-24T04:45:06;8.77;;;3.55;;
79670;SDS011;69137;50.878;8.050;2023-04-24T04:47:33;6.07;;;3.38;;
79670;SDS011;69137;50.878;8.050;2023-04-24T04:49:59;7.75;;;3.38;;
79670;SDS011;69137;50.878;8.050;2023-04-24T04:52:25;5.60;;;3.30;;
79670;SDS011;69137;50.878;8.050;2023-04-24T04:54:51;4.55;;;3.42;;
79670;SDS011;69137;50.878;8.050;2023-04-24T04:57:17;5.22;;;2.60;;
79670;SDS011;69137;50.878;8.050;2023-04-24T04:59:42;5.85;;;3.03;;
79670;SDS011;69137;50.878;8.050;2023-04-24T05:02:08;4.40;;;2.92;;
79670;SDS011;69137;50.878;8.050;2023-04-24T05:04:34;6.18;;;2.88;;
79670;SDS011;69137;50.878;8.050;2023-04-24T05:07:01;4.18;;;2.38;;
79670;SDS011;69137;50.878;8.050;2023-04-24T05:09:26;4.20;;;2.72;;
79670;SDS011;69137;50.878;8.050;2023-04-24T05:11:53;6.22;;;2.78;;
79670;SDS011;69137;50.878;8.050;2023-04-24T05:14:19;4.75;;;3.25;;
79670;SDS011;69137;50.878;8.050;2023-04-24T05:16:47;7.28;;;3.63;;
79670;SDS011;69137;50.878;8.050;2023-04-24T05:19:12;4.97;;;3.70;;
79670;SDS011;69137;50.878;8.050;2023-04-24T05:21:39;6.63;;;3.58;;
79670;SDS011;69137;50.878;8.050;2023-04-24T05:24:05;5.25;;;3.53;;
79670;SDS011;69137;50.878;8.050;2023-04-24T05:26:31;5.20;;;3.55;;
79670;SDS011;69137;50.878;8.050;2023-04-24T05:28:56;4.57;;;3.45;;
79670;SDS011;69137;50.878;8.050;2023-04-24T05:31:22;7.00;;;4.32;;
79670;SDS011;69137;50.878;8.050;2023-04-24T05:33:47;6.47;;;3.90;;
79670;SDS011;69137;50.878;8.050;2023-04-24T05:36:13;5.55;;;3.88;;
79670;SDS011;69137;50.878;8.050;2023-04-24T05:38:38;5.00;;;3.92;;
79670;SDS011;69137;50.878;8.050;2023-04-24T05:41:06;7.60;;;3.83;;
79670;SDS011;69137;50.878;8.050;2023-04-24T05:43:33;4.15;;;3.13;;
79670;SDS011;69137;50.878;8.050;2023-04-24T05:45:59;7.25;;;4.38;;
79670;SDS011;69137;50.878;8.050;2023-04-24T05:48:24;6.43;;;3.78;;
79670;SDS011;69137;50.878;8.050;2023-04-24T05:50:51;4.97;;;3.28;;
79670;SDS011;69137;50.878;8.050;2023-04-24T05:53:17;8.48;;;4.07;;
79670;SDS011;69137;50.878;8.050;2023-04-24T05:55:43;5.38;;;3.65;;
79670;SDS011;69137;50.878;8.050;2023-04-24T05:58:09;4.50;;;3.25;;
79670;SDS011;69137;50.878;8.050;2023-04-24T06:00:35;4.90;;;3.08;;
79670;SDS011;69137;50.878;8.050;2023-04-24T06:03:00;4.85;;;3.25;;
79670;SDS011;69137;50.878;8.050;2023-04-24T06:05:26;6.03;;;3.78;;
79670;SDS011;69137;50.878;8.050;2023-04-24T06:07:51;4.53;;;3.05;;
79670;SDS011;69137;50.878;8.050;2023-04-24T06:10:17;5.78;;;3.63;;
79670;SDS011;69137;50.878;8.050;2023-04-24T06:12:42;5.93;;;3.55;;
79670;SDS011;69137;50.878;8.050;2023-04-24T06:15:08;7.45;;;3.90;;
79670;SDS011;69137;50.878;8.050;2023-04-24T06:17:34;4.40;;;3.10;;
79670;SDS011;69137;50.878;8.050;2023-04-24T06:19:59;7.25;;;3.60;;
79670;SDS011;69137;50.878;8.050;2023-04-24T06:22:25;5.38;;;3.60;;
79670;SDS011;69137;50.878;8.050;2023-04-24T06:24:50;7.97;;;3.65;;
79670;SDS011;69137;50.878;8.050;2023-04-24T06:27:16;7.32;;;3.67;;
79670;SDS011;69137;50.878;8.050;2023-04-24T06:29:41;5.05;;;3.22;;
79670;SDS011;69137;50.878;8.050;2023-04-24T06:32:07;5.60;;;3.22;;
79670;SDS011;69137;50.878;8.050;2023-04-24T06:34:32;4.28;;;3.35;;
79670;SDS011;69137;50.878;8.050;2023-04-24T06:36:59;5.80;;;4.18;;
79670;SDS011;69137;50.878;8.050;2023-04-24T06:39:25;4.80;;;3.55;;
79670;SDS011;69137;50.878;8.050;2023-04-24T06:41:50;8.23;;;3.83;;
79670;SDS011;69137;50.878;8.050;2023-04-24T06:44:16;9.25;;;4.32;;
79670;SDS011;69137;50.878;8.050;2023-04-24T06:46:41;6.10;;;3.65;;
79670;SDS011;69137;50.878;8.050;2023-04-24T06:49:07;5.40;;;3.50;;
79670;SDS011;69137;50.878;8.050;2023-04-24T06:51:32;7.63;;;4.57;;
79670;SDS011;69137;50.878;8.050;2023-04-24T06:53:58;8.23;;;4.03;;
79670;SDS011;69137;50.878;8.050;2023-04-24T06:56:24;6.18;;;4.40;;
79670;SDS011;69137;50.878;8.050;2023-04-24T06:58:50;4.10;;;3.05;;
79670;SDS011;69137;50.878;8.050;2023-04-24T07:01:16;6.30;;;3.90;;
79670;SDS011;69137;50.878;8.050;2023-04-24T07:03:41;10.38;;;4.45;;
79670;SDS011;69137;50.878;8.050;2023-04-24T07:06:07;5.72;;;3.92;;
79670;SDS011;69137;50.878;8.050;2023-04-24T07:08:32;5.68;;;3.70;;
79670;SDS011;69137;50.878;8.050;2023-04-24T07:10:58;7.05;;;3.78;;
79670;SDS011;69137;50.878;8.050;2023-04-24T07:13:25;7.28;;;3.65;;
79670;SDS011;69137;50.878;8.050;2023-04-24T07:15:51;10.45;;;4.95;;
79670;SDS011;69137;50.878;8.050;2023-04-24T07:18:18;6.90;;;4.55;;
79670;SDS011;69137;50.878;8.050;2023-04-24T07:20:44;6.40;;;3.88;;
79670;SDS011;69137;50.878;8.050;2023-04-24T07:23:10;8.25;;;4.20;;
79670;SDS011;69137;50.878;8.050;2023-04-24T07:25:35;7.45;;;4.18;;
79670;SDS011;69137;50.878;8.050;2023-04-24T07:28:01;7.78;;;4.80;;
79670;SDS011;69137;50.878;8.050;2023-04-24T07:30:26;6.22;;;3.80;;
79670;SDS011;69137;50.878;8.050;2023-04-24T07:32:54;7.38;;;4.47;;
79670;SDS011;69137;50.878;8.050;2023-04-24T07:35:20;7.45;;;4.22;;
79670;SDS011;69137;50.878;8.050;2023-04-24T07:37:45;7.60;;;4.80;;
79670;SDS011;69137;50.878;8.050;2023-04-24T07:40:12;7.35;;;4.57;;
79670;SDS011;69137;50.878;8.050;2023-04-24T07:42:38;6.22;;;4.43;;
79670;SDS011;69137;50.878;8.050;2023-04-24T07:45:03;6.97;;;4.78;;
79670;SDS011;69137;50.878;8.050;2023-04-24T07:47:29;5.63;;;4.18;;
79670;SDS011;69137;50.878;8.050;2023-04-24T07:49:55;5.93;;;4.40;;
79670;SDS011;69137;50.878;8.050;2023-04-24T07:52:21;6.07;;;3.75;;
79670;SDS011;69137;50.878;8.050;2023-04-24T07:54:46;9.68;;;4.18;;
79670;SDS011;69137;50.878;8.050;2023-04-24T07:57:12;6.20;;;4.20;;
79670;SDS011;69137;50.878;8.050;2023-04-24T07:59:37;6.60;;;4.20;;
79670;SDS011;69137;50.878;8.050;2023-04-24T08:02:02;7.35;;;4.25;;
79670;SDS011;69137;50.878;8.050;2023-04-24T08:04:28;7.13;;;4.03;;
79670;SDS011;69137;50.878;8.050;2023-04-24T08:06:53;5.60;;;4.30;;
79670;SDS011;69137;50.878;8.050;2023-04-24T08:09:19;7.68;;;4.13;;
79670;SDS011;69137;50.878;8.050;2023-04-24T08:11:45;5.45;;;4.00;;
79670;SDS011;69137;50.878;8.050;2023-04-24T08:14:10;6.03;;;4.35;;
79670;SDS011;69137;50.878;8.050;2023-04-24T08:16:37;5.90;;;4.47;;
79670;SDS011;69137;50.878;8.050;2023-04-24T08:19:02;7.07;;;3.67;;
79670;SDS011;69137;50.878;8.050;2023-04-24T08:21:28;5.85;;;3.97;;
79670;SDS011;69137;50.878;8.050;2023-04-24T08:23:54;9.30;;;4.72;;
79670;SDS011;69137;50.878;8.050;2023-04-24T08:26:19;5.32;;;3.83;;
79670;SDS011;69137;50.878;8.050;2023-04-24T08:28:45;8.52;;;4.70;;
79670;SDS011;69137;50.878;8.050;2023-04-24T08:31:10;5.72;;;3.78;;
79670;SDS011;69137;50.878;8.050;2023-04-24T08:33:36;5.88;;;3.80;;
79670;SDS011;69137;50.878;8.050;2023-04-24T08:36:02;9.45;;;4.45;;
79670;SDS011;69137;50.878;8.050;2023-04-24T08:38:31;5.78;;;3.83;;
79670;SDS011;69137;50.878;8.050;2023-04-24T08:40:58;5.25;;;3.92;;
79670;SDS011;69137;50.878;8.050;2023-04-24T08:43:24;6.88;;;3.55;;
79670;SDS011;69137;50.878;8.050;2023-04-24T08:45:51;8.57;;;4.40;;
79670;SDS011;69137;50.878;8.050;2023-04-24T08:48:17;6.10;;;4.28;;
79670;SDS011;69137;50.878;8.050;2023-04-24T08:50:43;7.22;;;4.88;;
79670;SDS011;69137;50.878;8.050;2023-04-24T08:53:09;6.97;;;4.25;;
79670;SDS011;69137;50.878;8.050;2023-04-24T08:55:36;7.32;;;3.67;;
79670;SDS011;69137;50.878;8.050;2023-04-24T08:58:02;6.53;;;4.38;;
79670;SDS011;69137;50.878;8.050;2023-04-24T09:00:28;5.82;;;3.72;;
79670;SDS011;69137;50.878;8.050;2023-04-24T09:02:54;5.53;;;3.80;;
79670;SDS011;69137;50.878;8.050;2023-04-24T09:05:20;7.88;;;3.75;;
79670;SDS011;69137;50.878;8.050;2023-04-24T09:07:53;4.60;;;3.17;;
79670;SDS011;69137;50.878;8.050;2023-04-24T09:10:19;4.07;;;2.58;;
79670;SDS011;69137;50.878;8.050;2023-04-24T09:12:46;2.90;;;2.15;;
79670;SDS011;69137;50.878;8.050;2023-04-24T09:15:11;2.33;;;1.60;;
79670;SDS011;69137;50.878;8.050;2023-04-24T09:17:37;2.78;;;1.70;;
79670;SDS011;69137;50.878;8.050;2023-04-24T09:20:03;3.55;;;1.95;;
79670;SDS011;69137;50.878;8.050;2023-04-24T09:22:30;8.10;;;1.95;;
79670;SDS011;69137;50.878;8.050;2023-04-24T09:25:02;1.70;;;1.30;;
79670;SDS011;69137;50.878;8.050;2023-04-24T09:27:30;5.65;;;1.35;;
79670;SDS011;69137;50.878;8.050;2023-04-24T09:29:56;1.48;;;1.10;;
79670;SDS011;69137;50.878;8.050;2023-04-24T09:32:23;1.80;;;1.20;;
79670;SDS011;69137;50.878;8.050;2023-04-24T09:35:04;1.60;;;1.00;;
79670;SDS011;69137;50.878;8.050;2023-04-24T09:37:41;1.50;;;0.95;;
79670;SDS011;69137;50.878;8.050;2023-04-24T09:40:08;1.17;;;0.95;;
79670;SDS011;69137;50.878;8.050;2023-04-24T09:42:38;1.42;;;1.00;;
79670;SDS011;69137;50.878;8.050;2023-04-24T09:45:05;2.22;;;1.50;;
79670;SDS011;69137;50.878;8.050;2023-04-24T09:47:39;1.63;;;1.00;;
79670;SDS011;69137;50.878;8.050;2023-04-24T09:50:12;1.83;;;1.33;;
79670;SDS011;69137;50.878;8.050;2023-04-24T09:52:40;2.10;;;1.00;;
79670;SDS011;69137;50.878;8.050;2023-04-24T09:55:16;0.68;;;0.65;;
79670;SDS011;69137;50.878;8.050;2023-04-24T09:57:49;1.05;;;0.80;;
79670;SDS011;69137;50.878;8.050;2023-04-24T10:00:22;0.55;;;0.55;;
79670;SDS011;69137;50.878;8.050;2023-04-24T10:02:54;0.90;;;0.75;;
79670;SDS011;69137;50.878;8.050;2023-04-24T10:05:24;2.13;;;0.70;;
79670;SDS011;69137;50.878;8.050;2023-04-24T10:07:50;0.93;;;0.80;;
79670;SDS011;69137;50.878;8.050;2023-04-24T10:10:16;0.93;;;0.73;;
79670;SDS011;69137;50.878;8.050;2023-04-24T10:12:42;1.70;;;0.73;;
79670;SDS011;69137;50.878;8.050;2023-04-24T10:15:09;1.83;;;1.10;;
79670;SDS011;69137;50.878;8.050;2023-04-24T10:17:37;1.75;;;0.95;;
79670;SDS011;69137;50.878;8.050;2023-04-24T10:20:04;2.35;;;1.30;;
79670;SDS011;69137;50.878;8.050;2023-04-24T10:22:31;2.25;;;1.30;;
79670;SDS011;69137;50.878;8.050;2023-04-24T10:24:57;3.88;;;1.48;;
79670;SDS011;69137;50.878;8.050;2023-04-24T10:27:24;2.55;;;1.67;;
79670;SDS011;69137;50.878;8.050;2023-04-24T10:29:52;2.08;;;1.35;;
79670;SDS011;69137;50.878;8.050;2023-04-24T10:32:18;2.10;;;1.40;;
79670;SDS011;69137;50.878;8.050;2023-04-24T10:34:44;3.85;;;1.80;;
79670;SDS011;69137;50.878;8.050;2023-04-24T10:37:10;2.83;;;1.40;;
79670;SDS011;69137;50.878;8.050;2023-04-24T10:39:35;2.50;;;1.60;;
79670;SDS011;69137;50.878;8.050;2023-04-24T10:42:11;2.78;;;1.75;;
79670;SDS011;69137;50.878;8.050;2023-04-24T10:44:40;3.38;;;1.70;;
79670;SDS011;69137;50.878;8.050;2023-04-24T10:47:05;2.40;;;1.80;;
79670;SDS011;69137;50.878;8.050;2023-04-24T10:49:39;3.20;;;2.08;;
79670;SDS011;69137;50.878;8.050;2023-04-24T10:52:05;3.30;;;1.98;;
79670;SDS011;69137;50.878;8.050;2023-04-24T10:54:46;4.57;;;2.22;;
79670;SDS011;69137;50.878;8.050;2023-04-24T10:59:52;2.78;;;1.65;;
79670;SDS011;69137;50.878;8.050;2023-04-24T11:02:38;2.63;;;1.55;;
79670;SDS011;69137;50.878;8.050;2023-04-24T11:05:05;2.80;;;2.15;;
79670;SDS011;69137;50.878;8.050;2023-04-24T11:10:37;3.67;;;2.58;;
79670;SDS011;69137;50.878;8.050;2023-04-24T11:13:04;5.35;;;3.17;;
79670;SDS011;69137;50.878;8.050;2023-04-24T11:15:29;7.25;;;4.40;;
79670;SDS011;69137;50.878;8.050;2023-04-24T11:17:55;4.63;;;2.90;;
79670;SDS011;69137;50.878;8.050;2023-04-24T11:20:23;5.18;;;2.58;;
79670;SDS011;69137;50.878;8.050;2023-04-24T11:22:50;5.38;;;3.13;;
79670;SDS011;69137;50.878;8.050;2023-04-24T11:25:19;3.88;;;3.05;;
79670;SDS011;69137;50.878;8.050;2023-04-24T11:27:47;4.03;;;2.88;;
79670;SDS011;69137;50.878;8.050;2023-04-24T11:30:18;4.55;;;3.15;;
79670;SDS011;69137;50.878;8.050;2023-04-24T11:32:47;4.55;;;3.78;;
79670;SDS011;69137;50.878;8.050;2023-04-24T11:35:18;5.68;;;3.00;;
79670;SDS011;69137;50.878;8.050;2023-04-24T11:37:49;5.93;;;3.30;;
79670;SDS011;69137;50.878;8.050;2023-04-24T11:40:16;4.47;;;2.90;;
79670;SDS011;69137;50.878;8.050;2023-04-24T11:42:47;5.35;;;3.95;;
79670;SDS011;69137;50.878;8.050;2023-04-24T11:45:26;5.35;;;3.10;;
79670;SDS011;69137;50.878;8.050;2023-04-24T11:47:53;4.68;;;3.15;;
79670;SDS011;69137;50.878;8.050;2023-04-24T11:50:19;8.20;;;5.18;;
79670;SDS011;69137;50.878;8.050;2023-04-24T11:52:46;7.78;;;5.07;;
79670;SDS011;69137;50.878;8.050;2023-04-24T11:57:44;6.25;;;3.80;;
79670;SDS011;69137;50.878;8.050;2023-04-24T12:00:24;7.63;;;4.60;;
79670;SDS011;69137;50.878;8.050;2023-04-24T12:03:04;4.60;;;3.20;;
79670;SDS011;69137;50.878;8.050;2023-04-24T12:05:32;8.75;;;4.82;;
79670;SDS011;69137;50.878;8.050;2023-04-24T12:07:57;8.48;;;4.88;;
79670;SDS011;69137;50.878;8.050;2023-04-24T12:10:25;9.30;;;6.10;;
79670;SDS011;69137;50.878;8.050;2023-04-24T12:12:52;8.88;;;5.25;;
79670;SDS011;69137;50.878;8.050;2023-04-24T12:15:19;7.75;;;4.90;;
79670;SDS011;69137;50.878;8.050;2023-04-24T12:17:45;6.28;;;5.05;;
79670;SDS011;69137;50.878;8.050;2023-04-24T12:20:11;8.25;;;4.90;;
79670;SDS011;69137;50.878;8.050;2023-04-24T12:25:14;7.25;;;4.20;;
79670;SDS011;69137;50.878;8.050;2023-04-24T12:27:41;6.13;;;4.18;;
79670;SDS011;69137;50.878;8.050;2023-04-24T12:30:12;7.05;;;3.67;;
79670;SDS011;69137;50.878;8.050;2023-04-24T12:32:42;4.70;;;3.17;;
79670;SDS011;69137;50.878;8.050;2023-04-24T12:35:10;4.35;;;2.80;;
79670;SDS011;69137;50.878;8.050;2023-04-24T12:37:35;6.35;;;3.50;;
79670;SDS011;69137;50.878;8.050;2023-04-24T12:40:05;5.57;;;2.42;;
79670;SDS011;69137;50.878;8.050;2023-04-24T12:42:33;6.25;;;2.70;;
79670;SDS011;69137;50.878;8.050;2023-04-24T12:45:01;6.70;;;3.47;;
79670;SDS011;69137;50.878;8.050;2023-04-24T12:47:28;6.95;;;3.30;;
79670;SDS011;69137;50.878;8.050;2023-04-24T12:49:54;7.75;;;4.00;;
79670;SDS011;69137;50.878;8.050;2023-04-24T12:52:21;7.90;;;4.53;;
79670;SDS011;69137;50.878;8.050;2023-04-24T12:54:52;8.13;;;4.13;;
79670;SDS011;69137;50.878;8.050;2023-04-24T12:57:18;6.05;;;2.97;;
79670;SDS011;69137;50.878;8.050;2023-04-24T12:59:43;7.28;;;2.97;;
79670;SDS011;69137;50.878;8.050;2023-04-24T13:02:09;6.20;;;3.30;;
79670;SDS011;69137;50.878;8.050;2023-04-24T13:04:35;12.88;;;3.88;;
79670;SDS011;69137;50.878;8.050;2023-04-24T13:07:01;7.30;;;3.85;;
79670;SDS011;69137;50.878;8.050;2023-04-24T13:09:27;4.22;;;3.28;;
79670;SDS011;69137;50.878;8.050;2023-04-24T13:11:52;10.95;;;4.38;;
79670;SDS011;69137;50.878;8.050;2023-04-24T13:14:18;7.60;;;3.65;;
79670;SDS011;69137;50.878;8.050;2023-04-24T13:16:43;6.10;;;3.13;;
79670;SDS011;69137;50.878;8.050;2023-04-24T13:19:09;7.38;;;3.80;;
79670;SDS011;69137;50.878;8.050;2023-04-24T13:21:34;11.48;;;4.78;;
79670;SDS011;69137;50.878;8.050;2023-04-24T13:23:59;9.15;;;4.88;;
79670;SDS011;69137;50.878;8.050;2023-04-24T13:26:25;6.80;;;3.50;;
79670;SDS011;69137;50.878;8.050;2023-04-24T13:28:51;6.82;;;4.00;;
79670;SDS011;69137;50.878;8.050;2023-04-24T13:31:16;7.45;;;4.78;;
79670;SDS011;69137;50.878;8.050;2023-04-24T13:33:41;16.40;;;5.97;;
79670;SDS011;69137;50.878;8.050;2023-04-24T13:36:07;10.07;;;5.13;;
79670;SDS011;69137;50.878;8.050;2023-04-24T13:38:33;12.73;;;5.85;;
79670;SDS011;69137;50.878;8.050;2023-04-24T13:40:59;13.93;;;4.82;;
79670;SDS011;69137;50.878;8.050;2023-04-24T13:43:24;6.65;;;4.40;;
79670;SDS011;69137;50.878;8.050;2023-04-24T13:45:50;8.07;;;5.15;;
79670;SDS011;69137;50.878;8.050;2023-04-24T13:48:15;7.75;;;4.97;;
79670;SDS011;69137;50.878;8.050;2023-04-24T13:50:41;15.70;;;5.07;;
79670;SDS011;69137;50.878;8.050;2023-04-24T13:53:07;11.23;;;5.05;;
79670;SDS011;69137;50.878;8.050;2023-04-24T13:55:33;10.40;;;5.22;;
79670;SDS011;69137;50.878;8.050;2023-04-24T13:57:59;7.38;;;4.82;;
79670;SDS011;69137;50.878;8.050;2023-04-24T14:00:24;7.13;;;4.50;;
79670;SDS011;69137;50.878;8.050;2023-04-24T14:02:50;7.22;;;4.20;;
79670;SDS011;69137;50.878;8.050;2023-04-24T14:05:16;5.50;;;3.80;;
79670;SDS011;69137;50.878;8.050;2023-04-24T14:07:41;4.45;;;3.40;;
79670;SDS011;69137;50.878;8.050;2023-04-24T14:10:07;7.85;;;3.65;;
79670;SDS011;69137;50.878;8.050;2023-04-24T14:12:33;6.28;;;3.83;;
79670;SDS011;69137;50.878;8.050;2023-04-24T14:14:59;6.57;;;4.55;;
79670;SDS011;69137;50.878;8.050;2023-04-24T14:17:26;7.38;;;4.70;;
79670;SDS011;69137;50.878;8.050;2023-04-24T14:19:52;9.18;;;4.40;;
79670;SDS011;69137;50.878;8.050;2023-04-24T14:22:20;5.95;;;3.90;;
79670;SDS011;69137;50.878;8.050;2023-04-24T14:24:46;7.18;;;4.00;;
79670;SDS011;69137;50.878;8.050;2023-04-24T14:27:11;6.18;;;4.15;;
79670;SDS011;69137;50.878;8.050;2023-04-24T14:29:36;6.03;;;4.45;;
79670;SDS011;69137;50.878;8.050;2023-04-24T14:32:02;9.93;;;4.95;;
79670;SDS011;69137;50.878;8.050;2023-04-24T14:34:27;7.78;;;4.90;;
79670;SDS011;69137;50.878;8.050;2023-04-24T14:36:53;11.30;;;5.28;;
79670;SDS011;69137;50.878;8.050;2023-04-24T14:39:19;9.65;;;5.80;;
79670;SDS011;69137;50.878;8.050;2023-04-24T14:41:45;12.15;;;5.70;;
79670;SDS011;69137;50.878;8.050;2023-04-24T14:44:10;17.48;;;6.18;;
79670;SDS011;69137;50.878;8.050;2023-04-24T14:46:36;21.02;;;7.35;;
79670;SDS011;69137;50.878;8.050;2023-04-24T14:49:01;9.38;;;5.07;;
79670;SDS011;69137;50.878;8.050;2023-04-24T14:51:27;9.73;;;6.15;;
79670;SDS011;69137;50.878;8.050;2023-04-24T14:53:52;11.23;;;6.13;;